Time;durP1;ratioP1;P1;durP2;ratioP2;P2;SDS_P1;SDS_P2;PMS_P1;PMS_P2;Temp;Humidity;BMP_temperature;BMP_pressure;BME280_temperature;BME280_humidity;BME280_pressure;Samples;Min_cycle;Max_cycle;Signal;HPM_P1;HPM_P2
2023/10/05 00:01:07;;;;;;;4.60;4.20;;;;;;;10.27;82.43;98961.03;5032489;28;20232;-73
2023/10/05 00:03:38;;;;;;;5.40;4.90;;;;;;;10.27;82.58;98964.56;5030057;28;20320;-73
2023/10/05 00:06:13;;;;;;;6.05;4.50;;;;;;;10.19;83.14;98961.03;5033036;28;20202;-73
2023/10/05 00:08:43;;;;;;;5.40;4.60;;;;;;;9.98;83.94;98958.94;5029714;28;20230;-73
2023/10/05 00:11:22;;;;;;;6.82;4.97;;;;;;;10.13;82.97;98957.16;5031631;28;20691;-73
2023/10/05 00:13:50;;;;;;;7.10;4.80;;;;;;;10.08;83.41;98951.44;5030859;28;20223;-73
2023/10/05 00:16:20;;;;;;;5.22;4.40;;;;;;;10.00;83.49;98960.47;5030571;28;20200;-73
2023/10/05 00:18:50;;;;;;;6.43;5.43;;;;;;;9.93;84.06;98954.06;5033069;28;20707;-73
2023/10/05 00:21:19;;;;;;;5.43;4.60;;;;;;;9.96;84.42;98950.16;5035632;28;20655;-73
2023/10/05 00:23:50;;;;;;;7.20;5.05;;;;;;;9.95;83.74;98949.31;5030465;28;20213;-73
2023/10/05 00:26:20;;;;;;;5.80;5.20;;;;;;;9.90;84.23;98949.00;5031834;28;20200;-73
2023/10/05 00:29:00;;;;;;;5.93;4.75;;;;;;;9.90;84.36;98950.84;5027285;28;20578;-73
2023/10/05 00:31:27;;;;;;;5.50;4.30;;;;;;;9.76;85.07;98944.31;5029871;28;20234;-73
2023/10/05 00:33:56;;;;;;;6.60;5.25;;;;;;;9.76;85.27;98930.78;5036788;28;20202;-73
2023/10/05 00:36:25;;;;;;;5.07;4.50;;;;;;;9.77;85.07;98929.78;5033314;28;20208;-73
2023/10/05 00:38:52;;;;;;;6.57;5.10;;;;;;;9.67;85.26;98929.16;5032535;28;20230;-73
2023/10/05 00:41:18;;;;;;;6.13;4.55;;;;;;;9.57;86.33;98934.75;5034946;28;20228;-73
2023/10/05 00:43:46;;;;;;;5.32;4.82;;;;;;;9.54;86.65;98942.38;5033982;28;20349;-73
2023/10/05 00:46:14;;;;;;;5.85;5.10;;;;;;;9.61;86.01;98929.84;5032959;28;20325;-73
2023/10/05 00:48:54;;;;;;;7.97;5.32;;;;;;;9.72;85.63;98932.19;5034708;28;20222;-73
2023/10/05 00:51:26;;;;;;;5.78;4.65;;;;;;;9.74;85.48;98933.69;5034230;28;20318;-73
2023/10/05 00:53:57;;;;;;;5.43;4.78;;;;;;;9.72;85.28;98927.63;5031875;28;20202;-73
2023/10/05 00:56:24;;;;;;;6.38;4.97;;;;;;;9.61;85.88;98921.75;5034298;28;20203;-73
2023/10/05 00:58:54;;;;;;;8.20;4.70;;;;;;;9.49;86.56;98920.41;5033521;28;20326;-73
2023/10/05 01:01:24;;;;;;;5.90;4.70;;;;;;;9.42;87.17;98914.91;5034130;28;20217;-73
2023/10/05 01:04:18;;;;;;;6.10;5.22;;;;;;;9.52;86.56;98914.66;5032889;28;20223;-73
2023/10/05 01:06:54;;;;;;;5.80;5.18;;;;;;;9.67;86.03;98921.91;5033547;28;20203;-73
2023/10/05 01:09:39;;;;;;;5.40;4.60;;;;;;;9.64;86.06;98913.28;5032372;28;20672;-73
2023/10/05 01:12:16;;;;;;;5.15;4.63;;;;;;;9.53;86.31;98906.41;5034989;28;20219;-73
2023/10/05 01:14:50;;;;;;;5.10;4.13;;;;;;;9.61;86.34;98900.13;5034741;28;20687;-73
2023/10/05 01:17:20;;;;;;;6.60;5.00;;;;;;;9.61;86.32;98902.81;5033981;28;20207;-73
2023/10/05 01:19:50;;;;;;;4.97;4.35;;;;;;;9.62;86.72;98899.09;5034988;28;20349;-73
2023/10/05 01:22:20;;;;;;;7.25;4.82;;;;;;;9.67;86.39;98894.88;5032249;28;20201;-73
2023/10/05 01:24:49;;;;;;;6.25;4.72;;;;;;;9.71;86.46;98892.66;5034334;28;20231;-73
2023/10/05 01:27:16;;;;;;;5.90;4.70;;;;;;;9.69;86.47;98900.94;5032505;28;20215;-73
2023/10/05 01:29:43;;;;;;;7.10;4.78;;;;;;;9.58;86.86;98892.38;5033986;28;20227;-73
2023/10/05 01:32:10;;;;;;;5.82;4.93;;;;;;;9.62;86.59;98893.69;5031849;28;20923;-73
2023/10/05 01:34:37;;;;;;;6.90;5.45;;;;;;;9.61;86.90;98905.53;5034042;28;20744;-72
2023/10/05 01:37:05;;;;;;;6.22;5.13;;;;;;;9.70;87.00;98901.78;5032261;28;20292;-72
2023/10/05 01:39:35;;;;;;;7.65;5.60;;;;;;;9.56;87.19;98902.50;5031078;28;20670;-73
2023/10/05 01:42:05;;;;;;;6.05;5.40;;;;;;;9.57;87.38;98891.53;5032368;28;20235;-73
2023/10/05 01:44:36;;;;;;;7.85;5.22;;;;;;;9.55;87.93;98892.72;5036487;28;20210;-73
2023/10/05 01:47:02;;;;;;;8.02;5.68;;;;;;;9.56;87.62;98894.41;5038888;28;20680;-73
2023/10/05 01:49:31;;;;;;;8.65;6.20;;;;;;;9.37;88.13;98893.78;5036032;28;20262;-73
2023/10/05 01:51:59;;;;;;;8.60;6.00;;;;;;;9.30;88.47;98884.69;5035459;28;20603;-72
2023/10/05 01:54:27;;;;;;;8.50;7.10;;;;;;;9.09;89.44;98887.97;5033376;28;20196;-73
2023/10/05 01:57:01;;;;;;;8.98;6.25;;;;;;;9.12;90.17;98880.50;5040758;28;20225;-73
2023/10/05 01:59:33;;;;;;;6.95;6.13;;;;;;;8.96;89.89;98870.59;5035024;28;20226;-73
2023/10/05 02:02:00;;;;;;;6.82;6.13;;;;;;;8.97;90.08;98877.69;5032757;28;20687;-73
2023/10/05 02:04:27;;;;;;;8.18;6.45;;;;;;;8.93;89.77;98882.56;5033125;28;20261;-73
2023/10/05 02:06:54;;;;;;;7.75;6.38;;;;;;;8.87;89.90;98885.09;5031653;28;20284;-73
2023/10/05 02:09:21;;;;;;;7.45;6.75;;;;;;;8.92;89.54;98883.59;5032037;28;20209;-73
2023/10/05 02:11:48;;;;;;;7.78;7.07;;;;;;;8.57;90.60;98876.69;5032553;28;20199;-73
2023/10/05 02:14:16;;;;;;;7.40;6.70;;;;;;;8.62;90.51;98868.09;5031049;28;20544;-72
2023/10/05 02:16:49;;;;;;;8.32;7.45;;;;;;;8.50;90.93;98878.38;5033156;28;20207;-72
2023/10/05 02:19:16;;;;;;;8.80;7.50;;;;;;;8.37;91.27;98886.13;5033642;28;20224;-72
2023/10/05 02:21:45;;;;;;;9.10;7.95;;;;;;;8.43;91.04;98881.94;5033027;28;20219;-72
2023/10/05 02:24:16;;;;;;;9.10;8.20;;;;;;;8.49;91.55;98876.69;5032416;28;20194;-72
2023/10/05 02:26:56;;;;;;;8.85;7.95;;;;;;;8.49;91.64;98876.69;5033197;28;20202;-73
2023/10/05 02:29:24;;;;;;;8.63;7.80;;;;;;;8.50;92.25;98886.47;5033511;28;20219;-72
2023/10/05 02:32:05;;;;;;;10.10;9.10;;;;;;;8.53;92.25;98880.75;5032755;28;20329;-72
2023/10/05 02:34:38;;;;;;;9.10;8.32;;;;;;;8.45;92.30;98878.03;5029982;28;20203;-73
2023/10/05 02:37:08;;;;;;;8.60;7.78;;;;;;;8.48;92.57;98883.09;5032545;28;20225;-73
2023/10/05 02:39:37;;;;;;;8.85;8.05;;;;;;;8.47;92.79;98892.19;5032143;28;20242;-72
2023/10/05 02:42:06;;;;;;;10.18;8.20;;;;;;;8.54;92.48;98878.88;5032457;28;20209;-73
2023/10/05 02:44:35;;;;;;;13.35;8.10;;;;;;;8.63;92.02;98886.81;5033083;28;20922;-72
2023/10/05 02:47:08;;;;;;;8.40;7.60;;;;;;;8.59;91.85;98874.69;5030041;28;21081;-72
2023/10/05 02:49:43;;;;;;;9.27;8.35;;;;;;;8.52;92.24;98868.25;5030245;28;20220;-72
2023/10/05 02:52:12;;;;;;;10.32;8.32;;;;;;;8.50;92.45;98864.88;5030916;28;20697;-72
2023/10/05 02:54:40;;;;;;;8.82;8.13;;;;;;;8.64;92.08;98861.53;5031170;28;20197;-72
2023/10/05 02:57:08;;;;;;;9.48;8.48;;;;;;;8.56;92.22;98869.63;5031996;28;20201;-72
2023/10/05 02:59:35;;;;;;;9.07;8.27;;;;;;;8.55;92.36;98870.63;5034354;28;20350;-72
2023/10/05 03:02:09;;;;;;;8.80;7.72;;;;;;;8.65;92.01;98863.22;5033665;28;20603;-72
2023/10/05 03:04:45;;;;;;;8.73;7.82;;;;;;;8.62;91.61;98846.50;5036836;28;20195;-73
2023/10/05 03:07:14;;;;;;;7.97;7.18;;;;;;;8.62;92.04;98860.84;5034722;28;20313;-73
2023/10/05 03:09:42;;;;;;;7.85;7.15;;;;;;;8.55;92.03;98853.59;5033195;28;20336;-72
2023/10/05 03:12:10;;;;;;;8.32;7.50;;;;;;;8.71;91.74;98857.13;5032752;28;20290;-72
2023/10/05 03:14:38;;;;;;;8.70;7.70;;;;;;;8.75;91.46;98865.75;5031588;28;20247;-72
2023/10/05 03:17:12;;;;;;;8.63;6.95;;;;;;;8.72;91.54;98863.38;5032877;28;20252;-72
2023/10/05 03:19:40;;;;;;;8.27;6.90;;;;;;;8.65;91.78;98862.38;5030528;28;20230;-73
2023/10/05 03:22:11;;;;;;;9.00;7.35;;;;;;;8.70;91.50;98870.81;5032853;28;20236;-72
2023/10/05 03:24:38;;;;;;;10.02;7.60;;;;;;;8.70;91.86;98865.41;5031057;28;20637;-72
2023/10/05 03:27:07;;;;;;;9.00;7.07;;;;;;;8.75;91.58;98871.97;5030675;28;21095;-72
2023/10/05 03:29:38;;;;;;;9.65;8.52;;;;;;;8.49;91.28;98827.28;5032849;28;20226;-72
2023/10/05 03:32:13;;;;;;;7.97;6.70;;;;;;;8.77;91.43;98877.22;5030498;28;20332;-72
2023/10/05 03:34:42;;;;;;;7.68;6.88;;;;;;;8.73;91.22;98873.16;5031645;28;20211;-72
2023/10/05 03:37:13;;;;;;;9.77;7.00;;;;;;;8.69;91.37;98880.75;5031865;28;20737;-72
2023/10/05 03:39:49;;;;;;;8.27;6.88;;;;;;;8.64;91.87;98877.72;5031366;28;20755;-72
2023/10/05 03:42:15;;;;;;;8.02;7.22;;;;;;;8.65;91.52;98879.41;5031105;28;20202;-72
2023/10/05 03:44:42;;;;;;;12.15;6.85;;;;;;;8.59;92.06;98877.38;5031476;28;20298;-72
2023/10/05 03:47:11;;;;;;;7.57;6.90;;;;;;;8.62;92.11;98885.13;5031750;28;20820;-72
2023/10/05 03:49:38;;;;;;;10.75;8.20;;;;;;;8.53;92.26;98880.75;5032545;28;20226;-72
2023/10/05 03:52:07;;;;;;;9.27;8.05;;;;;;;8.57;92.32;98882.09;5032193;28;20286;-72
2023/10/05 03:54:34;;;;;;;9.73;8.70;;;;;;;8.42;92.67;98886.50;5031080;28;20205;-72
2023/10/05 03:57:10;;;;;;;8.10;7.30;;;;;;;8.43;92.93;98890.88;5030197;28;20202;-72
2023/10/05 03:59:37;;;;;;;9.93;7.88;;;;;;;8.39;92.56;98894.91;5031028;28;20274;-72
2023/10/05 04:02:05;;;;;;;8.77;7.97;;;;;;;8.53;92.63;98888.84;5029952;28;20202;-73
2023/10/05 04:04:35;;;;;;;9.30;8.40;;;;;;;8.51;92.36;98887.31;5029244;28;20201;-72
2023/10/05 04:07:02;;;;;;;8.93;7.65;;;;;;;8.54;92.20;98895.91;5028788;28;20736;-72
2023/10/05 04:09:29;;;;;;;7.35;6.50;;;;;;;8.53;92.33;98891.53;5041018;28;20264;-75
2023/10/05 04:11:56;;;;;;;9.77;7.00;;;;;;;8.60;92.06;98897.94;5037384;28;20210;-72
2023/10/05 04:14:23;;;;;;;10.63;7.53;;;;;;;8.59;92.08;98896.25;5035632;28;20255;-72
2023/10/05 04:16:51;;;;;;;7.65;7.05;;;;;;;8.68;91.49;98889.00;5036131;28;20191;-72
2023/10/05 04:19:18;;;;;;;8.20;7.40;;;;;;;8.75;91.36;98895.44;5037003;28;20312;-73
2023/10/05 04:21:46;;;;;;;8.77;7.95;;;;;;;8.74;91.32;98897.28;5037082;28;20202;-72
2023/10/05 04:24:14;;;;;;;7.82;7.13;;;;;;;8.84;90.83;98890.84;5035572;28;20243;-73
2023/10/05 04:26:44;;;;;;;7.80;6.90;;;;;;;8.73;91.01;98897.44;5033532;28;20662;-72
2023/10/05 04:29:12;;;;;;;8.60;7.60;;;;;;;8.62;91.35;98879.72;5034356;28;20244;-73
2023/10/05 04:31:39;;;;;;;8.60;7.80;;;;;;;8.66;91.18;98885.63;5035238;28;20248;-72
2023/10/05 04:34:11;;;;;;;8.45;7.65;;;;;;;8.75;91.17;98882.78;5028854;28;20197;-72
2023/10/05 04:36:39;;;;;;;10.15;8.70;;;;;;;8.72;91.03;98884.97;5033570;28;20210;-74
2023/10/05 04:39:07;;;;;;;8.65;7.85;;;;;;;8.75;91.21;98882.78;5036433;28;20255;-72
2023/10/05 04:41:35;;;;;;;7.88;6.90;;;;;;;8.73;91.00;98884.81;5036794;28;20292;-73
2023/10/05 04:44:03;;;;;;;8.18;7.38;;;;;;;8.68;91.57;98878.22;5037518;28;20232;-74
2023/10/05 04:46:30;;;;;;;9.82;8.13;;;;;;;8.66;91.28;98881.09;5039345;28;20199;-73
2023/10/05 04:49:07;;;;;;;8.52;7.70;;;;;;;8.61;91.74;98888.00;5035400;28;20255;-73
2023/10/05 04:51:38;;;;;;;8.55;7.75;;;;;;;8.59;92.09;98888.16;5038124;28;20193;-73
2023/10/05 04:54:06;;;;;;;8.32;7.40;;;;;;;8.51;92.36;98877.38;5039448;28;20592;-73
2023/10/05 04:56:43;;;;;;;9.57;7.88;;;;;;;8.57;92.39;98876.69;5037771;28;21027;-74
2023/10/05 04:59:25;;;;;;;7.90;7.10;;;;;;;8.46;92.36;98879.72;5038399;28;20303;-73
2023/10/05 05:02:00;;;;;;;8.57;7.88;;;;;;;8.40;92.88;98883.97;5037288;28;20215;-73
2023/10/05 05:04:41;;;;;;;9.75;7.65;;;;;;;8.53;92.27;98890.69;5036713;28;20262;-73
2023/10/05 05:07:09;;;;;;;9.98;6.97;;;;;;;8.59;92.02;98880.06;5037502;28;20207;-74
2023/10/05 05:09:38;;;;;;;7.03;6.32;;;;;;;8.41;92.51;98882.94;5042037;28;20279;-73
2023/10/05 05:12:09;;;;;;;8.18;7.05;;;;;;;8.39;92.68;98881.44;5039873;28;20211;-73
2023/10/05 05:14:41;;;;;;;7.22;6.50;;;;;;;8.42;92.71;98870.31;5036591;28;20204;-73
2023/10/05 05:17:10;;;;;;;7.50;6.78;;;;;;;8.36;93.01;98879.91;5039956;28;20209;-74
2023/10/05 05:19:38;;;;;;;6.93;6.07;;;;;;;8.38;92.85;98885.13;5035644;28;20246;-73
2023/10/05 05:22:05;;;;;;;8.15;6.88;;;;;;;8.30;93.66;98879.69;5034978;28;20651;-74
2023/10/05 05:24:33;;;;;;;8.63;7.32;;;;;;;8.35;92.76;98877.38;5033385;28;20205;-73
2023/10/05 05:27:03;;;;;;;7.97;6.32;;;;;;;8.34;93.34;98875.69;5035394;28;20199;-73
2023/10/05 05:29:33;;;;;;;7.82;7.07;;;;;;;8.33;93.05;98880.22;5037471;28;20250;-72
2023/10/05 05:32:06;;;;;;;9.95;6.90;;;;;;;8.31;93.18;98881.38;5033179;28;20221;-73
2023/10/05 05:34:32;;;;;;;7.43;6.72;;;;;;;8.27;93.25;98888.09;5027335;28;20194;-72
2023/10/05 05:36:59;;;;;;;7.30;6.60;;;;;;;8.27;93.32;98893.50;5036733;28;20292;-73
2023/10/05 05:39:26;;;;;;;10.55;7.20;;;;;;;8.13;94.03;98899.53;5031932;28;20237;-73
2023/10/05 05:41:59;;;;;;;7.30;6.47;;;;;;;8.28;93.39;98892.50;5031597;28;20214;-71
2023/10/05 05:44:28;;;;;;;8.00;6.80;;;;;;;8.28;93.50;98903.28;5032700;28;20294;-76
2023/10/05 05:46:59;;;;;;;8.02;6.30;;;;;;;8.32;93.51;98910.03;5025985;28;20671;-74
2023/10/05 05:49:29;;;;;;;9.73;6.63;;;;;;;8.32;93.56;98905.50;5032017;28;20218;-74
2023/10/05 05:51:58;;;;;;;8.35;7.20;;;;;;;8.34;93.61;98908.03;5034192;28;20201;-73
2023/10/05 05:54:29;;;;;;;7.68;6.57;;;;;;;8.23;94.15;98889.44;5029020;28;20200;-73
2023/10/05 05:56:57;;;;;;;7.55;6.60;;;;;;;8.30;93.71;98885.94;5031925;28;20666;-72
2023/10/05 05:59:24;;;;;;;9.30;7.15;;;;;;;8.42;93.28;98897.28;5030783;28;20262;-73
2023/10/05 06:01:51;;;;;;;7.13;6.40;;;;;;;8.44;92.94;98899.81;5032413;28;20231;-73
2023/10/05 06:04:19;;;;;;;9.98;6.80;;;;;;;8.42;92.91;98889.19;5034403;28;20202;-73
2023/10/05 06:06:48;;;;;;;7.32;6.53;;;;;;;8.48;93.02;98893.03;5031134;28;20275;-72
2023/10/05 06:09:19;;;;;;;7.03;6.30;;;;;;;8.45;92.71;98894.22;5033190;28;20245;-72
2023/10/05 06:11:48;;;;;;;7.72;6.90;;;;;;;8.55;92.56;98894.06;5029849;28;20195;-72
2023/10/05 06:14:16;;;;;;;7.05;6.35;;;;;;;8.55;92.48;98889.50;5031886;28;20208;-71
2023/10/05 06:16:43;;;;;;;7.93;7.20;;;;;;;8.49;92.72;98900.97;5033848;28;20201;-72
2023/10/05 06:19:10;;;;;;;8.00;6.70;;;;;;;8.54;92.82;98895.91;5033274;28;20230;-71
2023/10/05 06:21:39;;;;;;;7.97;6.60;;;;;;;8.62;92.28;98906.72;5030289;28;20279;-73
2023/10/05 06:24:06;;;;;;;7.05;6.45;;;;;;;8.61;91.85;98905.03;5028333;28;20198;-72
2023/10/05 06:26:33;;;;;;;9.10;6.30;;;;;;;8.62;91.81;98917.50;5031802;28;20222;-71
2023/10/05 06:29:00;;;;;;;8.63;6.20;;;;;;;8.85;91.13;98906.03;5033241;28;20223;-81
2023/10/05 06:31:28;;;;;;;9.57;6.70;;;;;;;8.79;91.29;98907.53;5032601;28;20250;-81
2023/10/05 06:33:55;;;;;;;8.60;6.10;;;;;;;8.98;90.67;98917.16;5029317;28;20207;-72
2023/10/05 06:36:22;;;;;;;7.53;6.18;;;;;;;8.97;90.45;98920.88;5032159;28;20326;-72
2023/10/05 06:38:50;;;;;;;7.68;5.80;;;;;;;9.20;89.73;98924.53;5027103;28;20225;-74
2023/10/05 06:41:22;;;;;;;6.82;5.75;;;;;;;9.26;88.80;98928.44;5035969;28;20269;-73
2023/10/05 06:43:49;;;;;;;6.50;5.50;;;;;;;9.42;88.76;98925.69;5034262;28;20253;-72
2023/10/05 06:46:20;;;;;;;6.15;5.30;;;;;;;9.46;88.11;98926.16;5033574;28;20215;-72
2023/10/05 06:48:49;;;;;;;7.15;5.20;;;;;;;9.65;87.61;98929.34;5032054;28;20222;-79
2023/10/05 06:51:22;;;;;;;5.45;4.90;;;;;;;9.80;87.15;98937.53;5036960;28;20278;-73
2023/10/05 06:53:51;;;;;;;6.13;5.15;;;;;;;9.78;86.75;98932.31;5034930;28;20948;-71
2023/10/05 06:56:18;;;;;;;8.73;6.07;;;;;;;9.77;86.71;98941.44;5028502;28;20275;-72
2023/10/05 06:58:45;;;;;;;5.40;4.90;;;;;;;9.85;85.70;98940.56;5033776;28;20353;-73
2023/10/05 07:01:12;;;;;;;7.03;5.38;;;;;;;9.67;86.46;98934.56;5027814;28;20259;-73
2023/10/05 07:03:39;;;;;;;5.95;5.13;;;;;;;10.00;85.85;98962.31;5032545;28;20203;-73
2023/10/05 07:06:06;;;;;;;6.40;5.80;;;;;;;10.03;85.29;98948.44;5029602;28;20668;-78
2023/10/05 07:08:33;;;;;;;5.28;4.78;;;;;;;10.17;84.79;98954.94;5034447;28;20224;-73
2023/10/05 07:11:01;;;;;;;7.13;5.53;;;;;;;10.32;84.25;98961.34;5032648;28;20276;-73
2023/10/05 07:13:29;;;;;;;8.35;5.15;;;;;;;10.44;83.83;98957.19;5033207;28;20213;-73
2023/10/05 07:15:56;;;;;;;5.82;4.90;;;;;;;10.38;83.86;98957.94;5029265;28;20235;-72
2023/10/05 07:18:24;;;;;;;10.18;5.70;;;;;;;10.34;83.54;98954.72;5028757;28;20194;-73
2023/10/05 07:20:51;;;;;;;9.00;6.10;;;;;;;10.27;84.03;98950.22;5035531;28;20644;-73
2023/10/05 07:23:18;;;;;;;6.10;4.70;;;;;;;10.26;83.87;98962.88;5033696;28;20370;-73
2023/10/05 07:25:45;;;;;;;5.75;5.03;;;;;;;10.33;83.94;98957.63;5035377;28;20197;-72
2023/10/05 07:28:14;;;;;;;11.85;5.80;;;;;;;10.54;83.00;98959.69;5036123;28;20207;-72
2023/10/05 07:30:42;;;;;;;8.07;4.72;;;;;;;10.90;82.27;98955.34;5030716;28;20203;-73
2023/10/05 07:33:09;;;;;;;8.38;6.00;;;;;;;11.08;81.22;98958.56;5039345;28;20299;-73
2023/10/05 07:35:36;;;;;;;8.18;4.75;;;;;;;11.07;81.19;98961.47;5034285;28;20695;-73
2023/10/05 07:38:03;;;;;;;6.32;4.60;;;;;;;11.31;80.40;98958.53;5030276;28;20293;-73
2023/10/05 07:40:30;;;;;;;6.97;4.90;;;;;;;11.53;79.61;98964.91;5029450;28;21523;-73
2023/10/05 07:42:57;;;;;;;6.30;4.70;;;;;;;11.71;78.54;98967.25;5028293;28;20284;-72
2023/10/05 07:45:25;;;;;;;8.70;4.90;;;;;;;12.14;77.20;98975.59;5028055;28;20258;-77
2023/10/05 07:47:52;;;;;;;5.05;4.55;;;;;;;12.61;75.31;98969.72;5031011;28;20292;-72
2023/10/05 07:50:19;;;;;;;5.60;4.95;;;;;;;12.66;73.71;98968.09;5029332;28;20220;-72
2023/10/05 07:52:48;;;;;;;7.45;4.70;;;;;;;13.05;72.80;98969.50;5032733;28;20207;-73
2023/10/05 07:55:14;;;;;;;6.25;5.00;;;;;;;12.78;72.82;98963.81;5034600;28;20216;-71
2023/10/05 07:57:42;;;;;;;6.20;4.70;;;;;;;13.25;72.13;98962.41;5023534;28;20212;-71
2023/10/05 08:00:12;;;;;;;8.33;5.23;;;;;;;13.34;71.14;98972.09;5026193;28;20480;-71
2023/10/05 08:02:40;;;;;;;5.65;4.32;;;;;;;13.24;71.63;98968.06;5037586;28;20455;-71
2023/10/05 08:05:09;;;;;;;7.57;5.60;;;;;;;13.22;71.29;98968.25;5032742;28;20225;-71
2023/10/05 08:07:36;;;;;;;10.43;5.20;;;;;;;13.04;72.12;98982.25;5029862;28;20455;-71
2023/10/05 08:10:03;;;;;;;5.70;5.15;;;;;;;13.12;72.38;98981.28;5033217;28;20479;-71
2023/10/05 08:12:29;;;;;;;6.55;5.45;;;;;;;13.23;72.05;98978.09;5035277;28;20419;-71
2023/10/05 08:14:57;;;;;;;6.97;5.33;;;;;;;13.13;71.96;98982.97;5028108;28;20197;-71
2023/10/05 08:17:23;;;;;;;6.82;5.00;;;;;;;13.35;71.18;98987.38;5032465;28;20566;-71
2023/10/05 08:19:52;;;;;;;8.77;5.20;;;;;;;13.46;70.58;98988.72;5032677;28;20213;-72
2023/10/05 08:22:20;;;;;;;5.07;4.50;;;;;;;13.69;70.37;98991.19;5033789;28;20982;-71
2023/10/05 08:24:48;;;;;;;6.43;4.97;;;;;;;14.05;68.34;98991.00;5033131;28;20477;-72
2023/10/05 08:27:16;;;;;;;7.97;4.83;;;;;;;14.54;66.33;98999.03;5034914;28;20470;-72
2023/10/05 08:29:44;;;;;;;10.47;5.40;;;;;;;14.94;65.25;98996.44;5030122;28;20528;-72
2023/10/05 08:32:13;;;;;;;7.67;4.60;;;;;;;15.19;63.44;99004.84;5031865;28;20465;-72
2023/10/05 08:34:41;;;;;;;6.33;4.20;;;;;;;15.33;63.81;99001.91;5028692;28;20544;-72
2023/10/05 08:37:11;;;;;;;6.50;5.20;;;;;;;15.67;62.49;98991.84;5030087;28;20541;-73
2023/10/05 08:39:38;;;;;;;4.30;3.90;;;;;;;15.93;61.72;98994.53;5027948;28;20487;-72
2023/10/05 08:42:06;;;;;;;5.10;4.60;;;;;;;16.04;60.39;98993.91;5019208;28;20498;-71
2023/10/05 08:44:36;;;;;;;6.73;4.87;;;;;;;15.97;60.75;98992.22;5030926;28;20780;-72
2023/10/05 08:47:05;;;;;;;5.87;4.53;;;;;;;15.41;62.89;98989.94;5032719;28;20525;-71
2023/10/05 08:49:33;;;;;;;5.37;4.47;;;;;;;16.10;61.22;98989.47;5036729;28;20487;-72
2023/10/05 08:52:07;;;;;;;6.27;4.57;;;;;;;16.97;58.21;98990.78;5034023;28;20472;-72
2023/10/05 08:54:35;;;;;;;6.20;3.83;;;;;;;18.29;53.43;98987.75;5033944;28;20462;-73
2023/10/05 08:57:09;;;;;;;5.53;4.60;;;;;;;18.98;50.69;98977.41;5038365;28;20823;-73
2023/10/05 08:59:36;;;;;;;8.30;4.10;;;;;;;19.73;48.58;98974.97;5029565;28;20594;-73
2023/10/05 09:02:07;;;;;;;6.23;4.10;;;;;;;20.66;46.27;98974.88;5033066;28;20496;-72
2023/10/05 09:04:44;;;;;;;7.07;4.60;;;;;;;19.95;48.06;98983.44;5030970;28;20616;-73
2023/10/05 09:07:27;;;;;;;4.30;3.80;;;;;;;20.63;45.70;98971.75;5032687;28;20993;-73
2023/10/05 09:09:55;;;;;;;5.30;4.10;;;;;;;20.72;45.03;98968.38;5031104;28;20563;-73
2023/10/05 09:12:33;;;;;;;5.93;4.60;;;;;;;21.27;44.42;98975.22;5032075;28;20547;-74
2023/10/05 09:15:10;;;;;;;5.30;3.90;;;;;;;21.07;44.27;98976.50;5031536;28;20800;-73
2023/10/05 09:17:37;;;;;;;6.87;4.73;;;;;;;20.64;45.33;98979.78;5033004;28;20789;-73
2023/10/05 09:20:22;;;;;;;6.07;4.10;;;;;;;20.46;46.56;98979.97;5032455;28;20488;-72
2023/10/05 09:22:49;;;;;;;6.17;3.87;;;;;;;20.36;47.08;98980.53;5034333;28;20459;-73
2023/10/05 09:25:26;;;;;;;5.23;3.87;;;;;;;19.19;50.10;98990.59;5027123;28;20473;-72
2023/10/05 09:27:55;;;;;;;7.37;4.80;;;;;;;19.08;49.73;98994.16;5025081;28;20450;-72
2023/10/05 09:30:26;;;;;;;6.47;4.03;;;;;;;19.05;49.38;98997.34;5034874;28;20474;-72
2023/10/05 09:33:07;;;;;;;6.03;3.90;;;;;;;19.00;49.89;98991.72;5045885;28;20441;-73
2023/10/05 09:35:34;;;;;;;7.90;4.60;;;;;;;19.51;48.73;98993.91;5028867;28;20463;-72
2023/10/05 09:38:01;;;;;;;5.87;4.10;;;;;;;19.45;48.66;99003.94;5034399;28;20989;-72
2023/10/05 09:40:29;;;;;;;8.10;4.67;;;;;;;19.39;49.00;98993.88;5036550;28;20577;-72
2023/10/05 09:42:57;;;;;;;5.63;3.87;;;;;;;19.72;48.06;98981.53;5038471;28;20457;-72
2023/10/05 09:45:27;;;;;;;5.93;3.87;;;;;;;20.08;47.64;98981.28;5032924;28;20577;-76
2023/10/05 09:47:55;;;;;;;10.70;4.70;;;;;;;19.77;48.01;98981.66;5031220;28;20462;-74
2023/10/05 09:50:26;;;;;;;9.07;4.57;;;;;;;19.22;48.53;98990.13;5037800;28;20465;-75
2023/10/05 09:52:56;;;;;;;6.70;4.83;;;;;;;18.95;49.21;98991.59;5036813;28;20470;-74
2023/10/05 09:55:23;;;;;;;8.33;4.77;;;;;;;19.06;49.49;99002.63;5039178;28;20465;-75
2023/10/05 09:57:56;;;;;;;5.87;4.23;;;;;;;20.01;48.11;98999.81;5032126;28;20483;-75
2023/10/05 10:00:30;;;;;;;9.83;5.00;;;;;;;20.53;45.82;98999.06;5036045;28;20554;-76
2023/10/05 10:02:59;;;;;;;8.47;4.50;;;;;;;20.77;45.53;98998.75;5034459;28;20524;-75
2023/10/05 10:05:30;;;;;;;7.17;4.83;;;;;;;20.42;45.11;98995.28;5038514;28;21002;-76
2023/10/05 10:07:58;;;;;;;8.63;5.10;;;;;;;20.30;46.29;98980.66;5036886;28;20504;-75
2023/10/05 10:10:25;;;;;;;7.43;4.53;;;;;;;20.83;44.74;98985.91;5029319;28;20482;-76
2023/10/05 10:12:54;;;;;;;9.77;5.23;;;;;;;21.15;43.42;98989.00;5035375;28;20460;-76
2023/10/05 10:15:28;;;;;;;11.93;4.30;;;;;;;20.92;43.54;98983.63;5033546;28;20440;-76
2023/10/05 10:18:13;;;;;;;7.13;5.37;;;;;;;22.00;42.19;98991.59;5035458;28;20840;-77
2023/10/05 10:20:45;;;;;;;6.87;4.70;;;;;;;21.56;42.75;98989.75;5040405;28;20940;-76
2023/10/05 10:23:14;;;;;;;7.10;4.30;;;;;;;21.37;43.67;98980.91;5031620;28;20482;-77
2023/10/05 10:25:41;;;;;;;7.33;4.53;;;;;;;21.49;43.00;98987.16;5035598;28;20460;-77
2023/10/05 10:28:17;;;;;;;7.30;3.80;;;;;;;21.17;43.14;98989.59;5034203;28;20503;-78
2023/10/05 10:30:47;;;;;;;8.10;4.60;;;;;;;19.99;44.83;98990.13;5028522;28;20468;-77
2023/10/05 10:33:26;;;;;;;6.47;4.37;;;;;;;20.27;44.39;98990.22;5035809;28;20467;-77
2023/10/05 10:35:53;;;;;;;7.17;4.20;;;;;;;21.09;42.83;98996.34;5031414;28;20546;-77
2023/10/05 10:38:23;;;;;;;6.40;4.60;;;;;;;21.75;42.05;98992.03;5030270;28;20586;-77
2023/10/05 10:41:09;;;;;;;7.93;5.40;;;;;;;22.70;39.36;98996.44;5029181;28;20447;-82
2023/10/05 10:43:40;;;;;;;7.53;3.93;;;;;;;23.09;37.66;98993.59;5032398;28;20546;-76
2023/10/05 10:46:14;;;;;;;8.10;4.43;;;;;;;23.52;37.60;98991.81;5035526;28;20448;-76
2023/10/05 10:48:53;;;;;;;5.63;4.40;;;;;;;23.25;37.58;98991.81;5032001;28;20509;-78
2023/10/05 10:51:21;;;;;;;6.90;4.37;;;;;;;23.06;37.75;99006.00;5034093;28;20940;-76
2023/10/05 10:53:56;;;;;;;5.93;3.90;;;;;;;23.00;38.20;99001.53;5038973;28;20459;-77
2023/10/05 10:56:27;;;;;;;7.00;3.73;;;;;;;21.92;39.80;98994.75;5036512;28;20554;-77
2023/10/05 10:59:09;;;;;;;7.03;4.20;;;;;;;20.94;41.81;98996.06;5031149;28;20484;-77
2023/10/05 11:01:43;;;;;;;5.83;3.90;;;;;;;20.85;42.47;98983.75;5029447;28;20491;-77
2023/10/05 11:04:23;;;;;;;4.87;3.60;;;;;;;20.68;42.83;98989.22;5043123;28;20514;-77
2023/10/05 11:06:56;;;;;;;4.13;3.10;;;;;;;20.30;43.60;98984.25;5034461;28;20444;-77
2023/10/05 11:09:35;;;;;;;5.33;3.80;;;;;;;20.48;42.61;98983.28;5032504;28;20488;-77
2023/10/05 11:12:10;;;;;;;6.83;4.13;;;;;;;20.69;42.82;98985.38;5027927;28;20455;-75
2023/10/05 11:14:41;;;;;;;7.77;3.80;;;;;;;20.84;43.10;98984.00;5029977;28;20981;-77
2023/10/05 11:17:31;;;;;;;7.93;4.07;;;;;;;20.48;43.17;98988.78;5026496;28;20868;-77
2023/10/05 11:20:20;;;;;;;9.70;4.47;;;;;;;20.13;44.28;98984.16;5028838;28;20471;-76
2023/10/05 11:22:47;;;;;;;7.07;4.23;;;;;;;19.82;44.51;98990.00;5031426;28;20486;-77
2023/10/05 11:25:23;;;;;;;6.30;4.20;;;;;;;19.46;45.65;98991.03;5030786;28;20463;-77
2023/10/05 11:27:58;;;;;;;8.87;4.50;;;;;;;19.57;45.30;98975.66;5039468;28;21013;-77
2023/10/05 11:30:41;;;;;;;7.40;3.90;;;;;;;19.65;44.62;98969.81;5030809;28;20453;-76
2023/10/05 11:33:15;;;;;;;7.10;4.40;;;;;;;18.53;46.60;98971.44;5032630;28;20455;-77
2023/10/05 11:35:48;;;;;;;8.33;4.83;;;;;;;18.66;47.09;98976.78;5035805;28;20465;-77
2023/10/05 11:38:16;;;;;;;5.50;4.30;;;;;;;18.95;47.50;98975.97;5030465;28;20483;-77
2023/10/05 11:40:49;;;;;;;6.00;3.37;;;;;;;18.89;47.18;98984.28;5029929;28;20507;-80
2023/10/05 11:43:17;;;;;;;7.50;3.83;;;;;;;18.59;48.64;98973.25;5029771;28;20989;-76
2023/10/05 11:46:12;;;;;;;8.53;3.83;;;;;;;18.42;47.88;98967.59;5035351;28;20825;-78
2023/10/05 11:48:47;;;;;;;6.10;3.77;;;;;;;17.93;49.88;98969.41;5030522;28;20483;-77
2023/10/05 11:51:19;;;;;;;5.83;4.27;;;;;;;17.99;49.62;98976.72;5034341;28;20459;-76